• Join FlightAware (Why Join?)
  • Login
  • US Flag 
08:12AM EST


 

Airport Tracker/Info


-or-


 

Live Flight TrackerFlight Track Log ✈ N633WC ✈ 02-Jul-2014 ✈ KDSM - KGRI

Flight Track Log - Related Links

Times and Time Zones

All times are in EDT time to prevent confusion due to time zone crossing. See the N633WC flight status page for this flight to view local times or setup timezone preferences in your user account.

Time Position Orientation Groundspeed Altitude Reporting Facility
EDT Latitude Longitude Course Direction KTS MPH feet Rate Location/Type
08:27PM 41.5511 -93.6636 312° West 147 169 1,400  Level Minneapolis Center
08:27PM 41.5661 -93.6856 312° West 147 169 2,500 1,920 Climbing Minneapolis Center
08:28PM 41.5739 -93.7147 290° West 141 162 3,500 1,860 Climbing Minneapolis Center
08:28PM 41.5914 -93.7239 339° North 142 163 4,400 1,800 Climbing Minneapolis Center
08:29PM 41.5900 -93.7625 267° West 148 170 5,400 1,380 Climbing Minneapolis Center
08:30PM 41.5844 -93.8217 263° West 157 181 6,700 1,200 Climbing Minneapolis Center
08:31PM 41.5781 -93.8939 263° West 179 206 7,900 1,260 Climbing Minneapolis Center
08:32PM 41.5700 -93.9600 261° West 180 207 9,400 1,200 Climbing Minneapolis Center
08:33PM 41.5625 -94.0214 261° West 178 205 10,500 1,020 Climbing Minneapolis Center
08:34PM 41.5531 -94.0933 260° West 192 221 11,500 1,020 Climbing Minneapolis Center
08:35PM 41.5458 -94.1681 263° West 201 231 12,700 1,260 Climbing Minneapolis Center
08:36PM 41.5344 -94.2506 260° West 200 230 14,200 1,200 Climbing Minneapolis Center
08:37PM 41.5258 -94.3186 260° West 192 221 15,200 960 Climbing Minneapolis Center
08:38PM 41.5189 -94.3903 263° West 192 221 16,200 1,020 Climbing Minneapolis Center
08:39PM 41.5131 -94.4611 264° West 192 221 17,300 840 Climbing Minneapolis Center
08:40PM 41.5042 -94.5292 260° West 191 220 18,000 600 Climbing Minneapolis Center
08:41PM 41.4933 -94.5992 258° West 191 220 18,600 660 Climbing Minneapolis Center
08:42PM 41.4842 -94.6856 262° West 194 223 19,400 660 Climbing Minneapolis Center
08:43PM 41.4736 -94.7578 259° West 195 224 20,000 240 Climbing Minneapolis Center
08:44PM 41.4647 -94.8336 261° West 205 236 20,000  Level Minneapolis Center
08:45PM 41.4556 -94.9139 261° West 215 247 20,000  Level Minneapolis Center
08:46PM 41.4439 -94.9961 259° West 222 255 20,000  Level Minneapolis Center
08:47PM 41.4347 -95.0753 261° West 222 255 20,000  Level Minneapolis Center
08:48PM 41.4236 -95.1578 260° West 223 257 20,000  Level Minneapolis Center
08:49PM 41.4100 -95.2569 260° West 224 258 20,000  Level Minneapolis Center
08:50PM 41.3989 -95.3392 260° West 224 258 20,000  Level Minneapolis Center
08:51PM 41.3886 -95.4214 261° West 224 258 20,000  Level Minneapolis Center
08:52PM 41.3781 -95.5033 260° West 224 258 20,000  Level Minneapolis Center
08:53PM 41.3664 -95.5853 259° West 224 258 20,000  Level Minneapolis Center
08:54PM 41.3531 -95.6844 260° West 225 259 20,000  Level Minneapolis Center
08:55PM 41.3422 -95.7664 260° West 225 259 20,000  Level Minneapolis Center
08:57PM 41.3311 -95.8483 260° West 225 259 20,000  Level Minneapolis Center
08:58PM 41.3217 -95.9283 261° West 221 254 20,000  Level Minneapolis Center
08:59PM 41.3097 -96.0103 259° West 222 255 20,000  Level Minneapolis Center
09:00PM 41.2983 -96.0925 260° West 223 257 20,000  Level Minneapolis Center
09:02PM 41.2719 -96.2731 259° West 224 258 20,000  Level Minneapolis Center
09:03PM 41.2639 -96.3436 261° West 223 257 20,000  Level Minneapolis Center
09:04PM 41.2494 -96.4422 259° West 223 257 20,000  Level Minneapolis Center
09:05PM 41.2383 -96.5219 260° West 223 257 20,000  Level Minneapolis Center
09:06PM 41.2267 -96.6036 259° West 223 257 20,000  Level Minneapolis Center
09:07PM 41.2150 -96.6844 259° West 223 257 20,000  Level Minneapolis Center
09:08PM 41.2039 -96.7650 260° West 223 257 20,000  Level Minneapolis Center
09:09PM 41.1914 -96.8453 258° West 222 255 20,000  Level Minneapolis Center
09:10PM 41.1806 -96.9247 260° West 221 254 20,000 -240 Level Minneapolis Center
09:11PM 41.1667 -97.0214 259° West 221 254 19,500 -1,320 Descending Minneapolis Center
09:12PM 41.1542 -97.1192 260° West 265 305 17,300 -1,800 Descending Minneapolis Center
09:13PM 41.1383 -97.2150 258° West 270 311 15,900 -1,380 Descending Minneapolis Center
09:14PM 41.1231 -97.3031 257° West 251 289 14,500 -1,620 Descending Minneapolis Center
09:15PM 41.1078 -97.4056 259° West 251 289 12,600 -1,500 Descending Minneapolis Center
09:16PM 41.0953 -97.4972 260° West 252 290 11,400 -1,260 Descending Minneapolis Center
09:17PM 41.0806 -97.5850 257° West 250 288 10,100 -1,200 Descending Minneapolis Center
09:18PM 41.0658 -97.6733 258° West 247 284 9,000 -1,020 Descending Minneapolis Center
09:19PM 41.0528 -97.7594 259° West 244 281 8,100 -900 Descending Minneapolis Center
09:20PM 41.0375 -97.8594 259° West 236 272 7,200 -900 Descending Minneapolis Center
09:21PM 41.0250 -97.9425 259° West 233 268 6,300 -840 Descending Minneapolis Center
09:22PM 41.0119 -98.0269 258° West 233 268 5,500 -780 Descending Minneapolis Center